createdAt,value
2019-03-01T00:01:44.309Z,68.49
2019-03-01T00:04:18.816Z,68.89
2019-03-01T00:07:09.300Z,69.66
2019-03-01T00:10:10.390Z,69.78
2019-03-01T00:13:08.163Z,69.98
2019-03-01T00:15:54.501Z,70.08
2019-03-01T00:18:28.647Z,69.31
2019-03-01T00:21:11.314Z,69.56
2019-03-01T00:24:04.611Z,69.89
2019-03-01T00:26:47.739Z,70.30
2019-03-01T00:29:45.440Z,70.22
2019-03-01T00:32:30.846Z,69.73
2019-03-01T00:35:47.048Z,70.80
2019-03-01T00:38:23.960Z,71.36
2019-03-01T00:41:16.150Z,71.22
2019-03-01T00:44:11.569Z,71.66
2019-03-01T00:46:40.982Z,71.90
2019-03-01T00:49:10.423Z,71.70
2019-03-01T00:51:39.880Z,71.13
2019-03-01T00:54:09.299Z,71.58
2019-03-01T00:56:38.744Z,71.80
2019-03-01T00:59:08.179Z,71.63
2019-03-01T01:01:37.626Z,72.19
2019-03-01T01:04:07.127Z,72.14
2019-03-01T01:06:36.562Z,72.29
2019-03-01T01:09:07.843Z,73.42
2019-03-01T01:11:37.292Z,72.61
2019-03-01T01:14:06.718Z,73.27
2019-03-01T01:16:36.162Z,73.27
2019-03-01T01:19:05.608Z,73.41
2019-03-01T01:21:35.042Z,74.06
2019-03-01T01:24:04.638Z,74.14
2019-03-01T01:26:34.088Z,74.04
2019-03-01T01:29:03.530Z,74.39
2019-03-01T01:31:32.975Z,74.50
2019-03-01T01:34:02.409Z,74.63
2019-03-01T01:36:31.861Z,75.28
2019-03-01T01:39:01.299Z,75.23
2019-03-01T01:41:30.743Z,75.62
2019-03-01T01:44:00.173Z,75.92
2019-03-01T01:46:29.627Z,76.53
2019-03-01T01:48:59.055Z,77.43
2019-03-01T01:51:28.484Z,77.29
2019-03-01T01:53:57.923Z,77.85
2019-03-01T01:56:27.359Z,77.80
2019-03-01T01:58:56.795Z,77.91
2019-03-01T02:01:26.233Z,78.33
2019-03-01T02:03:55.671Z,78.50
2019-03-01T02:06:25.374Z,78.47
2019-03-01T02:08:54.813Z,78.61
2019-03-01T02:11:24.250Z,78.76
2019-03-01T02:13:53.681Z,79.33
2019-03-01T02:16:23.107Z,79.78
2019-03-01T02:18:57.691Z,79.71
2019-03-01T02:21:23.693Z,79.63
2019-03-01T02:23:53.135Z,80.27
2019-03-01T02:26:22.565Z,80.20
2019-03-01T02:28:52.008Z,80.44
2019-03-01T02:31:21.440Z,80.14
2019-03-01T02:33:50.886Z,80.00
2019-03-01T02:36:20.316Z,79.98
2019-03-01T02:38:49.756Z,79.70
2019-03-01T02:41:19.194Z,79.59
2019-03-01T02:43:48.717Z,79.96
2019-03-01T02:46:18.152Z,79.61
2019-03-01T02:48:47.594Z,79.19
2019-03-01T02:51:17.021Z,79.20
2019-03-01T02:53:46.467Z,79.15
2019-03-01T02:56:15.885Z,79.20
2019-03-01T02:58:45.329Z,79.26
2019-03-01T03:01:14.776Z,79.30
2019-03-01T03:03:44.192Z,79.53
2019-03-01T03:06:20.764Z,79.44
2019-03-01T03:08:50.218Z,79.15
2019-03-01T03:11:19.643Z,79.01
2019-03-01T03:13:49.103Z,79.13
2019-03-01T03:16:18.524Z,79.14
2019-03-01T03:18:47.954Z,79.08
2019-03-01T03:21:17.387Z,78.91
2019-03-01T03:23:46.820Z,78.86
2019-03-01T03:26:16.281Z,79.13
2019-03-01T03:28:45.694Z,79.24
2019-03-01T03:31:15.126Z,79.83
2019-03-01T03:33:44.590Z,79.84
2019-03-01T03:36:14.001Z,79.84
2019-03-01T03:38:43.440Z,80.19
2019-03-01T03:41:12.870Z,80.82
2019-03-01T03:43:42.311Z,81.22
2019-03-01T03:46:11.747Z,81.22
2019-03-01T03:48:41.189Z,81.70
2019-03-01T03:51:10.625Z,82.05
2019-03-01T03:53:40.069Z,81.62
2019-03-01T03:56:09.565Z,81.81
2019-03-01T03:58:39.016Z,81.71
2019-03-01T04:01:08.448Z,81.78
2019-03-01T04:03:37.884Z,81.72
2019-03-01T04:06:07.328Z,81.49
2019-03-01T04:08:37.298Z,81.79
2019-03-01T04:11:06.736Z,81.77
2019-03-01T04:13:36.166Z,81.75
2019-03-01T04:16:05.613Z,81.34
2019-03-01T04:18:35.037Z,80.50
2019-03-01T04:21:04.496Z,80.78
2019-03-01T04:23:33.901Z,80.84
2019-03-01T04:26:03.345Z,80.26
2019-03-01T04:28:32.772Z,80.75
2019-03-01T04:31:03.690Z,80.77
2019-03-01T04:33:33.109Z,79.96
2019-03-01T04:36:02.554Z,78.75
2019-03-01T04:38:31.985Z,78.30
2019-03-01T04:41:01.426Z,78.24
2019-03-01T04:43:30.860Z,77.02
2019-03-01T04:46:00.301Z,77.64
2019-03-01T04:48:29.733Z,77.59
2019-03-01T04:50:59.179Z,77.66
2019-03-01T04:53:28.613Z,77.53
2019-03-01T04:55:58.056Z,77.15
2019-03-01T04:58:27.485Z,77.78
2019-03-01T05:00:57.292Z,77.86
2019-03-01T05:03:26.724Z,78.35
2019-03-01T05:05:56.162Z,78.53
2019-03-01T05:08:25.592Z,78.87
2019-03-01T05:10:55.028Z,79.25
2019-03-01T05:13:24.462Z,80.13
2019-03-01T05:15:53.896Z,80.60
2019-03-01T05:18:23.332Z,80.54
2019-03-01T05:20:52.769Z,80.66
2019-03-01T05:23:22.207Z,80.27
2019-03-01T05:25:51.640Z,80.02
2019-03-01T05:28:21.075Z,79.92
2019-03-01T05:30:50.525Z,80.30
2019-03-01T05:33:19.963Z,80.35
2019-03-01T05:35:49.400Z,80.91
2019-03-01T05:38:21.727Z,81.09
2019-03-01T05:40:49.997Z,81.21
2019-03-01T05:43:19.425Z,81.55
2019-03-01T05:45:48.862Z,81.47
2019-03-01T05:48:18.364Z,81.55
2019-03-01T05:50:47.807Z,80.95
2019-03-01T05:53:17.306Z,81.11
2019-03-01T05:55:46.743Z,81.15
2019-03-01T05:58:29.409Z,81.64
2019-03-01T06:01:15.428Z,81.59
2019-03-01T06:04:04.484Z,81.30
2019-03-01T06:07:16.405Z,81.81
2019-03-01T06:09:59.308Z,81.81
2019-03-01T06:13:02.384Z,81.63
2019-03-01T06:15:54.503Z,81.25
2019-03-01T06:19:10.398Z,81.44
2019-03-01T06:22:16.253Z,81.57
2019-03-01T06:25:08.373Z,81.78
2019-03-01T06:28:14.242Z,81.40
2019-03-01T06:31:05.857Z,81.74
2019-03-01T06:34:05.555Z,81.93
2019-03-01T06:36:45.285Z,82.17
2019-03-01T06:39:45.508Z,82.67
2019-03-01T06:42:51.261Z,82.33
2019-03-01T06:45:46.534Z,81.49
2019-03-01T06:48:17.617Z,81.76
2019-03-01T06:50:51.646Z,82.15
2019-03-01T06:53:21.104Z,81.47
2019-03-01T06:55:51.700Z,81.69
2019-03-01T06:58:22.455Z,81.98
2019-03-01T07:00:53.523Z,82.51
2019-03-01T07:03:22.967Z,82.81
2019-03-01T07:05:52.416Z,83.06
2019-03-01T07:08:21.858Z,83.06
2019-03-01T07:10:51.290Z,83.20
2019-03-01T07:13:20.736Z,83.44
2019-03-01T07:15:50.177Z,83.71
2019-03-01T07:18:19.614Z,83.54
2019-03-01T07:20:49.041Z,83.20
2019-03-01T07:23:18.488Z,84.00
2019-03-01T07:25:47.922Z,84.30
2019-03-01T07:28:17.366Z,84.00
2019-03-01T07:30:46.799Z,84.41
2019-03-01T07:33:16.239Z,83.87
2019-03-01T07:35:46.400Z,84.13
2019-03-01T07:38:15.897Z,83.74
2019-03-01T07:40:45.335Z,84.05
2019-03-01T07:43:14.780Z,84.52
2019-03-01T07:45:44.218Z,84.45
2019-03-01T07:48:13.658Z,85.18
2019-03-01T07:50:43.085Z,84.77
2019-03-01T07:53:12.538Z,85.06
2019-03-01T07:55:41.983Z,85.18
2019-03-01T07:58:11.408Z,85.57
2019-03-01T08:00:40.849Z,86.14
2019-03-01T08:03:11.968Z,85.99
2019-03-01T08:05:41.518Z,86.25
2019-03-01T08:08:10.961Z,86.64
2019-03-01T08:10:40.405Z,87.10
2019-03-01T08:13:09.850Z,86.89
2019-03-01T08:15:40.894Z,86.65
2019-03-01T08:18:10.447Z,86.35
2019-03-01T08:20:39.876Z,86.46
2019-03-01T08:23:09.320Z,86.50
2019-03-01T08:25:38.756Z,86.47
2019-03-01T08:28:08.211Z,86.33
2019-03-01T08:30:37.628Z,85.68
2019-03-01T08:33:07.956Z,84.71
2019-03-01T08:35:37.444Z,83.53
2019-03-01T08:38:06.923Z,83.10
2019-03-01T08:40:36.367Z,82.40
2019-03-01T08:43:11.717Z,81.80
2019-03-01T08:45:36.979Z,80.38
2019-03-01T08:48:06.418Z,79.72
2019-03-01T08:50:35.855Z,79.34
2019-03-01T08:53:05.306Z,79.36
2019-03-01T08:55:35.606Z,80.23
2019-03-01T08:58:07.039Z,79.51
2019-03-01T09:00:48.226Z,79.74
2019-03-01T09:03:30.826Z,79.70
2019-03-01T09:06:00.258Z,79.97
2019-03-01T09:08:29.699Z,79.93
2019-03-01T09:10:59.544Z,78.74
2019-03-01T09:13:29.215Z,79.48
2019-03-01T09:15:58.654Z,78.93
2019-03-01T09:18:28.084Z,79.35
2019-03-01T09:21:04.431Z,79.12
2019-03-01T09:23:28.675Z,79.01
2019-03-01T09:25:58.114Z,79.53
2019-03-01T09:28:27.570Z,78.73
2019-03-01T09:30:56.981Z,79.71
2019-03-01T09:33:26.418Z,80.00
2019-03-01T09:36:00.205Z,79.69
2019-03-01T09:38:29.631Z,78.44
2019-03-01T09:41:04.071Z,78.09
2019-03-01T09:43:32.219Z,77.49
2019-03-01T09:46:01.676Z,77.49
2019-03-01T09:48:31.086Z,77.87
2019-03-01T09:51:00.528Z,76.57
2019-03-01T09:53:30.540Z,76.23
2019-03-01T09:56:01.142Z,75.49
2019-03-01T09:58:30.571Z,74.93
2019-03-01T10:01:10.192Z,75.25
2019-03-01T10:03:39.622Z,75.35
2019-03-01T10:06:09.077Z,75.85
2019-03-01T10:08:38.509Z,75.99
2019-03-01T10:11:08.283Z,75.83
2019-03-01T10:13:37.720Z,76.44
2019-03-01T10:16:07.157Z,76.22
2019-03-01T10:18:36.590Z,76.33
2019-03-01T10:21:06.035Z,76.53
2019-03-01T10:23:35.466Z,76.95
2019-03-01T10:26:04.906Z,77.46
2019-03-01T10:28:34.340Z,78.61
2019-03-01T10:31:03.858Z,77.66
2019-03-01T10:33:33.289Z,78.01
2019-03-01T10:36:02.735Z,78.22
2019-03-01T10:38:32.199Z,79.17
2019-03-01T10:41:01.603Z,77.94
2019-03-01T10:43:31.055Z,77.90
2019-03-01T10:46:00.499Z,78.94
2019-03-01T10:48:29.944Z,78.66
2019-03-01T10:50:59.402Z,78.77
2019-03-01T10:53:28.830Z,79.42
2019-03-01T10:55:58.268Z,79.70
2019-03-01T10:58:27.701Z,79.85
2019-03-01T11:00:57.150Z,80.37
2019-03-01T11:03:26.582Z,80.94
2019-03-01T11:05:56.054Z,80.70
2019-03-01T11:08:25.484Z,80.74
2019-03-01T11:10:54.932Z,81.16
2019-03-01T11:13:24.365Z,81.32
2019-03-01T11:15:53.812Z,81.41
2019-03-01T11:18:23.318Z,81.69
2019-03-01T11:20:52.769Z,82.01
2019-03-01T11:23:22.200Z,82.33
2019-03-01T11:25:51.709Z,82.64
2019-03-01T11:28:21.138Z,82.39
2019-03-01T11:30:50.576Z,82.58
2019-03-01T11:33:20.011Z,82.27
2019-03-01T11:35:49.460Z,82.87
2019-03-01T11:38:18.902Z,83.49
2019-03-01T11:40:48.340Z,83.78
2019-03-01T11:43:17.759Z,83.93
2019-03-01T11:45:47.206Z,83.76
2019-03-01T11:48:16.713Z,83.44
2019-03-01T11:50:46.227Z,83.50
2019-03-01T11:53:15.660Z,82.94
2019-03-01T11:55:45.101Z,83.00
2019-03-01T11:58:14.536Z,82.81
2019-03-01T12:00:52.070Z,82.27
2019-03-01T12:03:15.561Z,82.73
2019-03-01T12:05:45.055Z,82.85
2019-03-01T12:08:14.481Z,82.90
2019-03-01T12:10:43.917Z,83.36
2019-03-01T12:13:13.701Z,83.38
2019-03-01T12:15:43.129Z,83.53
2019-03-01T12:18:12.582Z,83.31
2019-03-01T12:20:42.004Z,83.39
2019-03-01T12:23:11.463Z,83.29
2019-03-01T12:25:40.898Z,82.88
2019-03-01T12:28:10.335Z,82.69
2019-03-01T12:30:39.771Z,82.52
2019-03-01T12:33:09.213Z,82.34
2019-03-01T12:35:38.653Z,82.11
2019-03-01T12:38:08.102Z,81.68
2019-03-01T12:40:37.523Z,81.30
2019-03-01T12:43:06.967Z,81.34
2019-03-01T12:45:36.398Z,81.21
2019-03-01T12:48:05.864Z,81.30
2019-03-01T12:50:35.295Z,81.20
2019-03-01T12:53:04.745Z,81.05
2019-03-01T12:55:34.180Z,80.32
2019-03-01T12:58:03.615Z,80.79
2019-03-01T13:00:36.140Z,80.75
2019-03-01T13:03:09.067Z,81.12
2019-03-01T13:05:36.797Z,80.11
2019-03-01T13:08:06.317Z,80.09
2019-03-01T13:10:40.185Z,80.57
2019-03-01T13:13:09.248Z,80.55
2019-03-01T13:15:38.674Z,79.93
2019-03-01T13:18:10.181Z,79.60
2019-03-01T13:20:39.276Z,78.91
2019-03-01T13:23:08.726Z,78.83
2019-03-01T13:25:38.153Z,78.20
2019-03-01T13:28:07.605Z,78.79
2019-03-01T13:30:37.038Z,77.72
2019-03-01T13:33:06.483Z,78.42
2019-03-01T13:35:35.912Z,78.08
2019-03-01T13:38:05.360Z,77.99
2019-03-01T13:40:34.815Z,77.69
2019-03-01T13:43:04.246Z,77.83
2019-03-01T13:45:33.680Z,77.10
2019-03-01T13:48:03.366Z,77.77
2019-03-01T13:50:32.951Z,77.29
2019-03-01T13:53:02.395Z,77.76
2019-03-01T13:55:31.832Z,77.64
2019-03-01T13:58:01.286Z,77.58
2019-03-01T14:00:30.731Z,76.53
2019-03-01T14:03:00.170Z,76.90
2019-03-01T14:05:29.615Z,76.46
2019-03-01T14:08:08.379Z,75.31
2019-03-01T14:10:30.875Z,75.13
2019-03-01T14:13:00.304Z,75.38
2019-03-01T14:15:30.034Z,75.77
2019-03-01T14:18:01.179Z,75.39
2019-03-01T14:20:30.740Z,75.03
2019-03-01T14:23:00.175Z,75.70
2019-03-01T14:25:29.616Z,74.52
2019-03-01T14:28:02.221Z,73.55
2019-03-01T14:30:33.205Z,73.33
2019-03-01T14:33:01.405Z,72.89
2019-03-01T14:35:30.847Z,73.36
2019-03-01T14:38:00.296Z,72.74
2019-03-01T14:40:29.746Z,72.09
2019-03-01T14:42:59.208Z,72.26
2019-03-01T14:45:33.745Z,72.33
2019-03-01T14:48:05.052Z,72.09
2019-03-01T14:50:34.738Z,71.52
2019-03-01T14:53:04.295Z,70.93
2019-03-01T14:55:41.742Z,70.36
2019-03-01T14:58:34.307Z,70.52
2019-03-01T15:01:38.711Z,70.23
2019-03-01T15:04:08.471Z,70.65
2019-03-01T15:06:39.570Z,70.42
2019-03-01T15:09:09.983Z,70.77
2019-03-01T15:11:41.130Z,71.38
2019-03-01T15:14:13.307Z,71.04
2019-03-01T15:16:43.361Z,71.55
2019-03-01T15:19:13.781Z,72.06
2019-03-01T15:21:43.222Z,72.16
2019-03-01T15:24:12.760Z,71.68
2019-03-01T15:26:45.386Z,70.79
2019-03-01T15:29:13.360Z,69.77
2019-03-01T15:31:42.794Z,69.06
2019-03-01T15:34:12.253Z,69.64
2019-03-01T15:36:41.753Z,70.14
2019-03-01T15:39:11.303Z,70.50
2019-03-01T15:41:42.270Z,70.69
2019-03-01T15:44:11.899Z,71.02
2019-03-01T15:46:41.339Z,70.16
2019-03-01T15:49:11.735Z,69.88
2019-03-01T15:51:41.986Z,70.17
2019-03-01T15:54:11.469Z,70.34
2019-03-01T15:56:43.005Z,70.93
2019-03-01T15:59:12.103Z,70.84
2019-03-01T16:01:43.704Z,70.72
2019-03-01T16:04:12.717Z,70.91
2019-03-01T16:06:42.167Z,71.64
2019-03-01T16:09:15.103Z,72.08
2019-03-01T16:11:44.558Z,72.21
2019-03-01T16:14:14.016Z,73.75
2019-03-01T16:16:45.741Z,74.89
2019-03-01T16:19:14.660Z,75.64
2019-03-01T16:21:44.179Z,76.33
2019-03-01T16:24:13.607Z,77.47
2019-03-01T16:26:43.071Z,78.11
2019-03-01T16:29:12.527Z,79.05
2019-03-01T16:31:41.983Z,78.82
2019-03-01T16:34:11.402Z,79.67
2019-03-01T16:36:40.909Z,79.97
2019-03-01T16:39:12.759Z,79.71
2019-03-01T16:41:42.882Z,79.03
2019-03-01T16:44:13.120Z,78.85
2019-03-01T16:46:42.568Z,79.46
2019-03-01T16:49:12.001Z,79.55
2019-03-01T16:51:41.436Z,79.41
2019-03-01T16:54:15.359Z,78.95
2019-03-01T16:56:42.049Z,79.24
2019-03-01T16:59:11.479Z,79.97
2019-03-01T17:01:40.928Z,79.13
2019-03-01T17:04:10.365Z,79.65
2019-03-01T17:06:39.800Z,79.76
2019-03-01T17:09:11.688Z,78.28
2019-03-01T17:11:41.564Z,77.28
2019-03-01T17:14:11.757Z,76.66
2019-03-01T17:16:41.197Z,75.91
2019-03-01T17:19:10.656Z,75.85
2019-03-01T17:21:40.106Z,75.98
2019-03-01T17:24:12.280Z,75.92
2019-03-01T17:26:40.707Z,75.69
2019-03-01T17:29:10.147Z,74.88
2019-03-01T17:31:39.646Z,74.92
2019-03-01T17:34:09.078Z,74.58
2019-03-01T17:36:38.589Z,74.91
2019-03-01T17:39:08.133Z,74.17
2019-03-01T17:41:37.548Z,74.77
2019-03-01T17:44:08.658Z,74.64
2019-03-01T17:46:38.155Z,74.42
2019-03-01T17:49:07.596Z,75.09
2019-03-01T17:51:37.031Z,74.36
2019-03-01T17:54:07.759Z,74.86
2019-03-01T17:56:37.212Z,75.00
2019-03-01T17:59:08.345Z,75.19
2019-03-01T18:01:39.069Z,75.07
2019-03-01T18:04:09.245Z,75.62
2019-03-01T18:06:38.695Z,75.59
2019-03-01T18:09:08.574Z,75.67
2019-03-01T18:11:40.711Z,75.41
2019-03-01T18:14:09.862Z,75.09
2019-03-01T18:16:39.306Z,75.26
2019-03-01T18:19:08.749Z,75.43
2019-03-01T18:21:38.184Z,75.47
2019-03-01T18:24:07.628Z,75.73
2019-03-01T18:26:39.996Z,75.45
2019-03-01T18:29:08.536Z,75.38
2019-03-01T18:31:38.043Z,75.10
2019-03-01T18:34:07.956Z,74.23
2019-03-01T18:36:37.394Z,74.38
2019-03-01T18:39:10.483Z,74.46
2019-03-01T18:41:40.055Z,74.47
2019-03-01T18:44:09.498Z,74.05
2019-03-01T18:46:38.939Z,73.91
2019-03-01T18:49:08.378Z,74.24
2019-03-01T18:51:42.349Z,74.18
2019-03-01T18:54:09.641Z,73.82
2019-03-01T18:56:39.071Z,74.55
2019-03-01T18:59:08.519Z,74.39
2019-03-01T19:01:37.953Z,74.24
2019-03-01T19:04:07.390Z,74.54
2019-03-01T19:06:36.836Z,74.44
2019-03-01T19:09:07.912Z,74.58
2019-03-01T19:11:37.929Z,74.83
2019-03-01T19:14:08.271Z,74.69
2019-03-01T19:16:37.705Z,74.65
2019-03-01T19:19:07.153Z,73.89
2019-03-01T19:21:36.586Z,73.70
2019-03-01T19:24:08.159Z,73.99
2019-03-01T19:26:37.372Z,73.92
2019-03-01T19:29:06.820Z,73.86
2019-03-01T19:31:36.251Z,74.09
2019-03-01T19:34:05.693Z,74.05
2019-03-01T19:36:35.528Z,73.73
2019-03-01T19:39:10.057Z,73.51
2019-03-01T19:41:39.495Z,73.41
2019-03-01T19:44:08.940Z,73.35
2019-03-01T19:46:38.377Z,73.40
2019-03-01T19:49:09.518Z,72.98
2019-03-01T19:51:39.002Z,73.50
2019-03-01T19:54:08.500Z,73.18
2019-03-01T19:56:37.952Z,73.60
2019-03-01T19:59:07.399Z,73.80
2019-03-01T20:01:36.838Z,73.65
2019-03-01T20:04:06.381Z,73.17
2019-03-01T20:06:35.806Z,73.24
2019-03-01T20:09:05.700Z,73.44
2019-03-01T20:11:35.145Z,72.63
2019-03-01T20:14:04.662Z,72.83
2019-03-01T20:16:34.173Z,73.13
2019-03-01T20:19:03.611Z,73.06
2019-03-01T20:21:33.055Z,73.45
2019-03-01T20:24:05.274Z,74.10
2019-03-01T20:26:33.662Z,73.52
2019-03-01T20:29:03.109Z,73.33
2019-03-01T20:31:32.549Z,73.77
2019-03-01T20:34:02.784Z,73.63
2019-03-01T20:36:32.419Z,73.79
2019-03-01T20:39:01.863Z,73.47
2019-03-01T20:41:31.307Z,73.13
2019-03-01T20:44:01.170Z,73.48
2019-03-01T20:46:30.653Z,73.05
2019-03-01T20:49:00.663Z,73.10
2019-03-01T20:51:31.264Z,73.18
2019-03-01T20:54:01.133Z,72.95
2019-03-01T20:56:30.634Z,73.12
2019-03-01T20:59:00.080Z,72.99
2019-03-01T21:01:29.516Z,72.71
2019-03-01T21:04:01.541Z,72.63
2019-03-01T21:06:30.122Z,72.85
2019-03-01T21:09:00.725Z,72.75
2019-03-01T21:11:30.728Z,72.68
2019-03-01T21:14:00.176Z,72.56
2019-03-01T21:16:29.614Z,72.14
2019-03-01T21:18:59.901Z,72.41
2019-03-01T21:21:29.748Z,72.50
2019-03-01T21:23:59.291Z,72.48
2019-03-01T21:26:28.738Z,72.35
2019-03-01T21:28:58.179Z,72.22
2019-03-01T21:31:27.634Z,71.97
2019-03-01T21:33:59.348Z,72.22
2019-03-01T21:36:28.245Z,71.73
2019-03-01T21:38:57.678Z,71.89
2019-03-01T21:41:27.169Z,71.95
2019-03-01T21:43:56.559Z,71.93
2019-03-01T21:46:26.010Z,71.97
2019-03-01T21:48:56.817Z,72.24
2019-03-01T21:51:26.602Z,72.55
2019-03-01T21:53:56.046Z,72.62
2019-03-01T21:56:25.540Z,72.79
2019-03-01T21:58:55.014Z,72.66
2019-03-01T22:01:24.450Z,72.17
2019-03-01T22:03:53.883Z,71.88
2019-03-01T22:06:23.878Z,71.25
2019-03-01T22:08:54.052Z,71.71
2019-03-01T22:11:23.501Z,71.52
2019-03-01T22:13:52.941Z,71.72
2019-03-01T22:16:22.392Z,71.89
2019-03-01T22:18:51.822Z,71.90
2019-03-01T22:21:22.854Z,72.16
2019-03-01T22:23:52.619Z,71.88
2019-03-01T22:26:22.152Z,71.94
2019-03-01T22:28:51.595Z,71.95
2019-03-01T22:31:21.037Z,71.74
2019-03-01T22:33:52.627Z,71.86
2019-03-01T22:36:21.649Z,71.64
2019-03-01T22:38:51.086Z,71.48
2019-03-01T22:41:20.532Z,71.54
2019-03-01T22:43:49.983Z,71.49
2019-03-01T22:46:21.076Z,71.38
2019-03-01T22:48:56.139Z,71.40
2019-03-01T22:51:21.755Z,71.37
2019-03-01T22:53:51.197Z,71.12
2019-03-01T22:56:22.506Z,71.16
2019-03-01T22:58:51.879Z,71.48
2019-03-01T23:01:23.303Z,70.91
2019-03-01T23:03:54.817Z,71.01
2019-03-01T23:06:23.974Z,70.60
2019-03-01T23:08:53.418Z,71.17
2019-03-01T23:11:22.863Z,71.47
2019-03-01T23:13:52.760Z,71.29
2019-03-01T23:16:23.484Z,71.76
2019-03-01T23:18:56.724Z,72.78
2019-03-01T23:21:24.097Z,73.42
2019-03-01T23:23:55.891Z,73.51
2019-03-01T23:26:24.700Z,73.72
2019-03-01T23:28:54.141Z,73.43
2019-03-01T23:31:23.583Z,73.53
2019-03-01T23:33:53.026Z,74.25
2019-03-01T23:36:24.859Z,74.52
2019-03-01T23:38:53.637Z,74.60
2019-03-01T23:41:23.078Z,74.47
2019-03-01T23:43:52.525Z,73.39
2019-03-01T23:46:21.984Z,72.63
2019-03-01T23:48:51.426Z,72.16
2019-03-01T23:51:20.863Z,71.96
2019-03-01T23:53:50.296Z,71.58
2019-03-01T23:56:19.741Z,71.73
2019-03-01T23:58:51.929Z,71.94
